createdAt,value
2018-12-10T00:02:14.671Z,101055.87
2018-12-10T00:04:40.618Z,101062.62
2018-12-10T00:07:06.610Z,101063.08
2018-12-10T00:09:32.643Z,101063.58
2018-12-10T00:11:58.611Z,101065.51
2018-12-10T00:14:24.595Z,101069.95
2018-12-10T00:16:50.539Z,101066.83
2018-12-10T00:19:16.490Z,101070.08
2018-12-10T00:21:42.450Z,101074.90
2018-12-10T00:24:08.432Z,101072.72
2018-12-10T00:26:34.395Z,101078.00
2018-12-10T00:29:00.376Z,101081.83
2018-12-10T00:31:26.323Z,101093.20
2018-12-10T00:33:52.292Z,101091.06
2018-12-10T00:36:18.248Z,101098.36
2018-12-10T00:38:44.213Z,101104.75
2018-12-10T00:41:10.184Z,101106.40
2018-12-10T00:43:36.281Z,101112.17
2018-12-10T00:46:02.297Z,101120.20
2018-12-10T00:48:28.263Z,101125.85
2018-12-10T00:50:54.237Z,101124.32
2018-12-10T00:53:20.300Z,101128.77
2018-12-10T00:55:46.262Z,101128.77
2018-12-10T00:58:12.227Z,101132.36
2018-12-10T01:00:38.278Z,101133.19
2018-12-10T01:03:04.241Z,101136.31
2018-12-10T01:05:30.200Z,101139.23
2018-12-10T01:07:56.315Z,101137.78
2018-12-10T01:10:22.407Z,101140.42
2018-12-10T01:12:48.339Z,101150.48
2018-12-10T01:15:14.301Z,101157.57
2018-12-10T01:17:40.387Z,101148.67
2018-12-10T01:20:06.366Z,101152.63
2018-12-10T01:22:32.326Z,101162.70
2018-12-10T01:24:58.427Z,101160.05
2018-12-10T01:27:24.510Z,101164.50
2018-12-10T01:29:50.487Z,101177.57
2018-12-10T01:32:16.462Z,101179.84
2018-12-10T01:34:42.450Z,101190.05
2018-12-10T01:37:08.422Z,101180.95
2018-12-10T01:39:34.379Z,101192.33
2018-12-10T01:42:00.390Z,101203.03
2018-12-10T01:44:26.385Z,101203.86
2018-12-10T01:46:52.374Z,101208.80
2018-12-10T01:49:18.349Z,101207.59
2018-12-10T01:51:44.312Z,101209.75
2018-12-10T01:54:10.258Z,101214.69
2018-12-10T01:56:36.435Z,101218.76
2018-12-10T01:59:02.437Z,101216.23
2018-12-10T02:01:28.403Z,101227.99
2018-12-10T02:03:54.369Z,101230.14
2018-12-10T02:06:20.338Z,101234.09
2018-12-10T02:08:46.316Z,101240.20
2018-12-10T02:11:12.273Z,101240.91
2018-12-10T02:13:38.233Z,101244.16
2018-12-10T02:16:04.190Z,101244.41
2018-12-10T02:18:30.161Z,101244.03
2018-12-10T02:20:56.181Z,101245.36
2018-12-10T02:23:22.138Z,101245.84
2018-12-10T02:25:48.101Z,101248.11
2018-12-10T02:28:14.058Z,101252.93
2018-12-10T02:30:40.042Z,101242.01
2018-12-10T02:33:06.111Z,101247.28
2018-12-10T02:35:32.064Z,101246.95
2018-12-10T02:37:58.024Z,101250.75
2018-12-10T02:40:23.980Z,101252.34
2018-12-10T02:42:50.065Z,101255.73
2018-12-10T02:45:16.019Z,101250.46
2018-12-10T02:47:41.989Z,101244.58
2018-12-10T02:50:07.966Z,101248.99
2018-12-10T02:52:33.933Z,101260.25
2018-12-10T02:54:59.893Z,101259.16
2018-12-10T02:57:25.860Z,101262.62
2018-12-10T02:59:51.820Z,101261.30
2018-12-10T03:02:17.849Z,101263.82
2018-12-10T03:04:43.819Z,101268.98
2018-12-10T03:07:09.769Z,101268.48
2018-12-10T03:09:35.722Z,101272.45
2018-12-10T03:12:01.678Z,101268.38
2018-12-10T03:14:27.642Z,101269.53
2018-12-10T03:16:53.609Z,101267.87
2018-12-10T03:19:19.562Z,101286.08
2018-12-10T03:21:45.524Z,101282.61
2018-12-10T03:24:11.479Z,101282.00
2018-12-10T03:26:37.426Z,101288.59
2018-12-10T03:29:03.377Z,101294.70
2018-12-10T03:31:29.489Z,101295.53
2018-12-10T03:33:55.433Z,101292.77
2018-12-10T03:36:21.421Z,101297.22
2018-12-10T03:38:47.482Z,101298.05
2018-12-10T03:41:13.446Z,101297.68
2018-12-10T03:43:39.606Z,101303.33
2018-12-10T03:46:05.563Z,101301.03
2018-12-10T03:48:31.511Z,101301.03
2018-12-10T03:50:57.482Z,101301.03
2018-12-10T03:53:23.457Z,101303.17
2018-12-10T03:55:49.590Z,101298.39
2018-12-10T03:58:15.651Z,101306.67
2018-12-10T04:00:41.626Z,101310.75
2018-12-10T04:03:07.584Z,101310.27
2018-12-10T04:05:33.554Z,101312.56
2018-12-10T04:07:59.534Z,101309.31
2018-12-10T04:10:25.507Z,101316.25
2018-12-10T04:12:51.562Z,101315.27
2018-12-10T04:15:17.546Z,101318.89
2018-12-10T04:17:43.505Z,101321.87
2018-12-10T04:20:09.497Z,101323.55
2018-12-10T04:22:35.459Z,101321.87
2018-12-10T04:25:01.527Z,101325.58
2018-12-10T04:27:27.572Z,101321.75
2018-12-10T04:29:53.525Z,101328.83
2018-12-10T04:32:19.508Z,101336.26
2018-12-10T04:34:45.465Z,101339.39
2018-12-10T04:37:11.425Z,101331.09
2018-12-10T04:39:37.390Z,101337.92
2018-12-10T04:42:03.350Z,101338.14
2018-12-10T04:44:29.485Z,101334.45
2018-12-10T04:46:55.432Z,101339.12
2018-12-10T04:49:21.408Z,101336.26
2018-12-10T04:51:47.374Z,101342.03
2018-12-10T04:54:13.336Z,101347.53
2018-12-10T04:56:39.370Z,101347.03
2018-12-10T04:59:05.366Z,101353.30
2018-12-10T05:01:31.594Z,101359.89
2018-12-10T05:03:57.560Z,101370.78
2018-12-10T05:06:23.590Z,101376.06
2018-12-10T05:08:49.541Z,101380.73
2018-12-10T05:11:15.501Z,101377.72
2018-12-10T05:13:41.465Z,101380.73
2018-12-10T05:16:09.206Z,101382.05
2018-12-10T05:18:35.319Z,101385.52
2018-12-10T05:21:01.418Z,101381.68
2018-12-10T05:23:27.364Z,101386.50
2018-12-10T05:25:53.331Z,101388.65
2018-12-10T05:28:19.297Z,101389.75
2018-12-10T05:30:45.246Z,101388.65
2018-12-10T05:33:11.201Z,101392.95
2018-12-10T05:35:37.179Z,101392.16
2018-12-10T05:38:03.130Z,101398.76
2018-12-10T05:40:29.185Z,101399.10
2018-12-10T05:42:55.126Z,101402.56
2018-12-10T05:45:21.079Z,101404.98
2018-12-10T05:47:47.042Z,101401.17
2018-12-10T05:50:13.027Z,101405.47
2018-12-10T05:52:38.976Z,101412.22
2018-12-10T05:55:04.941Z,101406.08
2018-12-10T05:57:30.899Z,101421.23
2018-12-10T05:59:56.889Z,101414.14
2018-12-10T06:02:22.898Z,101421.56
2018-12-10T06:04:48.851Z,101420.59
2018-12-10T06:07:14.850Z,101423.23
2018-12-10T06:09:40.829Z,101423.37
2018-12-10T06:12:06.777Z,101416.41
2018-12-10T06:14:32.741Z,101418.93
2018-12-10T06:16:58.726Z,101418.22
2018-12-10T06:19:24.776Z,101421.34
2018-12-10T06:21:50.746Z,101426.62
2018-12-10T06:24:16.723Z,101432.73
2018-12-10T06:26:42.712Z,101428.77
2018-12-10T06:29:08.696Z,101438.23
2018-12-10T06:31:34.706Z,101441.36
2018-12-10T06:34:00.694Z,101440.04
2018-12-10T06:36:26.658Z,101444.97
2018-12-10T06:38:52.618Z,101452.89
2018-12-10T06:41:18.636Z,101452.52
2018-12-10T06:43:44.641Z,101451.69
2018-12-10T06:46:10.601Z,101455.76
2018-12-10T06:48:36.586Z,101454.44
2018-12-10T06:51:02.552Z,101456.59
2018-12-10T06:53:28.530Z,101461.86
2018-12-10T06:55:54.510Z,101460.55
2018-12-10T06:58:20.452Z,101462.84
2018-12-10T07:00:46.425Z,101465.83
2018-12-10T07:03:12.483Z,101468.46
2018-12-10T07:05:38.450Z,101473.73
2018-12-10T07:08:04.406Z,101472.08
2018-12-10T07:10:30.354Z,101466.45
2018-12-10T07:12:56.314Z,101473.88
2018-12-10T07:15:22.284Z,101470.76
2018-12-10T07:17:48.242Z,101479.98
2018-12-10T07:20:14.199Z,101473.73
2018-12-10T07:22:40.179Z,101475.43
2018-12-10T07:25:06.146Z,101476.75
2018-12-10T07:27:32.137Z,101484.67
2018-12-10T07:29:58.108Z,101484.67
2018-12-10T07:32:24.062Z,101482.52
2018-12-10T07:34:50.030Z,101486.33
2018-12-10T07:37:15.980Z,101492.92
2018-12-10T07:39:41.985Z,101492.47
2018-12-10T07:42:07.939Z,101493.64
2018-12-10T07:44:33.949Z,101502.05
2018-12-10T07:46:59.930Z,101514.75
2018-12-10T07:49:25.893Z,101506.98
2018-12-10T07:51:51.865Z,101507.66
2018-12-10T07:54:17.976Z,101515.72
2018-12-10T07:56:43.929Z,101517.87
2018-12-10T07:59:09.917Z,101524.59
2018-12-10T08:01:35.878Z,101517.65
2018-12-10T08:04:01.821Z,101528.20
2018-12-10T08:06:27.821Z,101530.47
2018-12-10T08:08:53.767Z,101533.25
2018-12-10T08:11:19.731Z,101527.83
2018-12-10T08:13:45.714Z,101531.44
2018-12-10T08:16:11.662Z,101537.20
2018-12-10T08:18:37.652Z,101543.42
2018-12-10T08:21:03.619Z,101545.23
2018-12-10T08:23:29.718Z,101551.83
2018-12-10T08:25:55.826Z,101558.42
2018-12-10T08:28:21.798Z,101554.35
2018-12-10T08:30:47.833Z,101551.12
2018-12-10T08:33:13.797Z,101556.25
2018-12-10T08:35:40.896Z,101559.75
2018-12-10T08:38:07.253Z,101549.66
2018-12-10T08:40:33.201Z,101560.92
2018-12-10T08:42:59.189Z,101564.77
2018-12-10T08:45:25.171Z,101571.22
2018-12-10T08:47:51.938Z,101573.41
2018-12-10T08:50:17.906Z,101568.24
2018-12-10T08:52:43.853Z,101568.13
2018-12-10T08:55:09.912Z,101565.94
2018-12-10T08:57:35.945Z,101570.28
2018-12-10T09:00:01.895Z,101572.92
2018-12-10T09:02:27.876Z,101577.59
2018-12-10T09:04:53.882Z,101572.92
2018-12-10T09:07:19.870Z,101582.87
2018-12-10T09:09:45.829Z,101583.47
2018-12-10T09:12:11.831Z,101588.61
2018-12-10T09:14:37.820Z,101595.20
2018-12-10T09:17:03.845Z,101593.77
2018-12-10T09:19:29.803Z,101600.37
2018-12-10T09:21:55.845Z,101607.80
2018-12-10T09:24:21.793Z,101616.92
2018-12-10T09:26:47.737Z,101623.41
2018-12-10T09:29:13.698Z,101629.28
2018-12-10T09:31:39.677Z,101627.48
2018-12-10T09:34:16.261Z,101633.10
2018-12-10T09:36:46.064Z,101628.69
2018-12-10T09:39:16.059Z,101636.72
2018-12-10T09:49:27.189Z,101627.22
2018-12-10T09:57:53.827Z,101619.91
2018-12-10T10:00:21.408Z,101612.83
2018-12-10T10:05:21.265Z,101624.45
2018-12-10T10:07:48.299Z,101623.24
2018-12-10T10:10:16.049Z,101624.95
2018-12-10T10:12:42.176Z,101617.50
2018-12-10T10:15:10.064Z,101616.06
2018-12-10T10:17:38.427Z,101607.66
2018-12-10T10:20:06.419Z,101609.59
2018-12-10T10:27:46.178Z,101609.93
2018-12-10T10:30:14.175Z,101607.06
2018-12-10T10:32:43.172Z,101616.30
2018-12-10T10:35:10.265Z,101617.62
2018-12-10T10:37:36.233Z,101616.41
2018-12-10T10:40:02.266Z,101628.66
2018-12-10T10:42:28.235Z,101613.55
2018-12-10T10:44:54.186Z,101623.62
2018-12-10T10:47:20.263Z,101630.81
2018-12-10T10:49:46.244Z,101621.92
2018-12-10T10:52:12.390Z,101628.89
2018-12-10T10:54:38.372Z,101622.19
2018-12-10T10:57:04.318Z,101617.02
2018-12-10T10:59:30.267Z,101614.72
2018-12-10T11:01:56.335Z,101610.99
2018-12-10T11:04:22.305Z,101612.31
2018-12-10T11:06:48.270Z,101606.34
2018-12-10T11:09:15.530Z,101609.81
2018-12-10T11:11:41.788Z,101612.31
2018-12-10T11:14:07.744Z,101610.28
2018-12-10T11:16:33.714Z,101605.72
2018-12-10T11:18:59.761Z,101600.55
2018-12-10T11:21:25.733Z,101599.95
2018-12-10T11:23:51.725Z,101597.08
2018-12-10T11:26:17.785Z,101598.40
2018-12-10T11:28:43.706Z,101600.20
2018-12-10T11:31:09.682Z,101601.38
2018-12-10T11:33:35.685Z,101604.52
2018-12-10T11:36:01.655Z,101607.49
2018-12-10T11:38:27.682Z,101590.22
2018-12-10T11:40:53.717Z,101588.78
2018-12-10T11:43:19.663Z,101585.17
2018-12-10T11:45:45.660Z,101580.61
2018-12-10T11:48:11.639Z,101582.04
2018-12-10T11:50:37.585Z,101574.95
2018-12-10T11:53:03.566Z,101578.77
2018-12-10T11:55:29.526Z,101575.67
2018-12-10T11:57:55.516Z,101581.28
2018-12-10T12:00:21.535Z,101576.00
2018-12-10T12:02:47.510Z,101583.44
2018-12-10T12:05:13.475Z,101584.27
2018-12-10T12:07:39.447Z,101578.98
2018-12-10T12:10:05.423Z,101577.81
2018-12-10T12:12:31.408Z,101578.31
2018-12-10T12:14:57.395Z,101583.09
2018-12-10T12:17:24.186Z,101580.80
2018-12-10T12:19:50.141Z,101589.09
2018-12-10T12:22:16.109Z,101590.76
2018-12-10T12:24:42.087Z,101590.41
2018-12-10T12:27:08.063Z,101578.16
2018-12-10T12:29:34.021Z,101579.14
2018-12-10T12:32:00.017Z,101577.33
2018-12-10T12:34:26.472Z,101563.30
2018-12-10T12:36:52.471Z,101571.93
2018-12-10T12:41:57.275Z,101575.78
2018-12-10T12:44:23.263Z,101575.78
2018-12-10T12:46:49.268Z,101580.34
2018-12-10T12:49:15.245Z,101586.83
2018-12-10T12:51:41.202Z,101582.87
2018-12-10T12:54:07.167Z,101575.67
2018-12-10T12:56:33.137Z,101569.67
2018-12-10T12:58:59.093Z,101574.12
2018-12-10T13:01:25.063Z,101563.78
2018-12-10T13:03:51.017Z,101571.10
2018-12-10T13:06:17.078Z,101571.59
2018-12-10T13:08:43.051Z,101571.48
2018-12-10T13:11:09.179Z,101573.26
2018-12-10T13:13:35.162Z,101574.72
2018-12-10T13:16:01.118Z,101566.69
2018-12-10T13:18:27.089Z,101556.84
2018-12-10T13:20:53.055Z,101562.73
2018-12-10T13:23:18.995Z,101563.70
2018-12-10T13:25:44.972Z,101560.84
2018-12-10T13:28:10.952Z,101566.98
2018-12-10T13:30:37.012Z,101565.52
2018-12-10T13:33:03.182Z,101569.63
2018-12-10T13:35:29.146Z,101565.78
2018-12-10T13:37:55.669Z,101563.97
2018-12-10T13:40:21.775Z,101568.16
2018-12-10T13:42:47.898Z,101556.77
2018-12-10T13:45:14.000Z,101561.70
2018-12-10T13:47:40.061Z,101565.03
2018-12-10T13:50:06.103Z,101560.61
2018-12-10T13:52:32.063Z,101564.80
2018-12-10T13:54:58.878Z,101567.21
2018-12-10T13:57:24.840Z,101572.12
2018-12-10T13:59:50.826Z,101571.77
2018-12-10T14:02:16.796Z,101567.67
2018-12-10T14:04:42.755Z,101572.12
2018-12-10T14:07:08.735Z,101568.04
2018-12-10T14:09:34.763Z,101572.00
2018-12-10T14:12:00.710Z,101569.22
2018-12-10T14:14:26.661Z,101565.25
2018-12-10T14:16:52.646Z,101564.91
2018-12-10T14:19:18.761Z,101568.76
2018-12-10T14:21:44.721Z,101575.47
2018-12-10T14:24:10.727Z,101583.28
2018-12-10T14:26:36.673Z,101575.70
2018-12-10T14:29:02.640Z,101579.17
2018-12-10T14:31:28.648Z,101573.17
2018-12-10T14:33:54.692Z,101574.49
2018-12-10T14:36:20.637Z,101576.68
2018-12-10T14:38:46.599Z,101575.70
2018-12-10T14:41:12.622Z,101581.47
2018-12-10T14:43:38.575Z,101586.03
2018-12-10T14:46:04.547Z,101589.16
2018-12-10T14:48:30.610Z,101586.52
2018-12-10T14:50:56.564Z,101584.22
2018-12-10T14:53:22.532Z,101583.88
2018-12-10T14:55:48.521Z,101580.41
2018-12-10T14:58:14.466Z,101586.03
2018-12-10T15:00:40.410Z,101594.30
2018-12-10T15:03:06.471Z,101593.84
2018-12-10T15:05:32.464Z,101595.01
2018-12-10T15:07:58.427Z,101598.63
2018-12-10T15:10:24.386Z,101601.12
2018-12-10T15:12:50.348Z,101599.80
2018-12-10T15:15:16.418Z,101604.62
2018-12-10T15:17:42.379Z,101612.89
2018-12-10T15:20:08.348Z,101608.44
2018-12-10T15:22:34.399Z,101617.22
2018-12-10T15:25:00.357Z,101622.50
2018-12-10T15:27:26.492Z,101624.66
2018-12-10T15:29:52.490Z,101628.95
2018-12-10T15:32:18.512Z,101637.37
2018-12-10T15:34:44.495Z,101629.45
2018-12-10T15:37:10.486Z,101629.45
2018-12-10T15:39:36.569Z,101623.83
2018-12-10T15:42:02.592Z,101628.62
2018-12-10T15:44:28.587Z,101630.42
2018-12-10T15:46:54.596Z,101637.97
2018-12-10T15:49:20.545Z,101655.13
2018-12-10T15:51:46.527Z,101649.02
2018-12-10T15:54:12.493Z,101649.51
2018-12-10T15:56:38.478Z,101645.55
2018-12-10T15:59:04.532Z,101651.28
2018-12-10T16:01:30.558Z,101652.75
2018-12-10T16:03:56.510Z,101653.23
2018-12-10T16:06:22.467Z,101658.38
2018-12-10T16:08:48.506Z,101659.20
2018-12-10T16:11:14.457Z,101667.13
2018-12-10T16:13:40.433Z,101664.03
2018-12-10T16:16:06.487Z,101663.54
2018-12-10T16:18:32.470Z,101667.98
2018-12-10T16:20:58.442Z,101667.13
2018-12-10T16:23:24.466Z,101668.93
2018-12-10T16:25:50.463Z,101672.89
2018-12-10T16:28:16.442Z,101670.14
2018-12-10T16:30:42.407Z,101664.48
2018-12-10T16:33:08.372Z,101672.41
2018-12-10T16:35:34.321Z,101673.72
2018-12-10T16:38:00.312Z,101675.19
2018-12-10T16:40:26.286Z,101677.83
2018-12-10T16:42:52.394Z,101670.25
2018-12-10T16:45:18.378Z,101670.39
2018-12-10T16:47:44.470Z,101674.81
2018-12-10T16:50:10.574Z,101676.85
2018-12-10T16:52:36.551Z,101673.87
2018-12-10T16:55:02.542Z,101674.36
2018-12-10T16:57:28.510Z,101674.81
2018-12-10T16:59:54.467Z,101671.72
2018-12-10T17:02:20.445Z,101674.95
2018-12-10T17:04:46.642Z,101673.63
2018-12-10T17:07:12.635Z,101675.78
2018-12-10T17:09:38.667Z,101678.77
2018-12-10T17:12:04.649Z,101683.22
2018-12-10T17:14:30.653Z,101690.30
2018-12-10T17:16:56.602Z,101693.78
2018-12-10T17:19:22.579Z,101690.30
2018-12-10T17:21:48.524Z,101685.14
2018-12-10T17:24:14.569Z,101692.95
2018-12-10T17:26:40.524Z,101699.20
2018-12-10T17:29:06.699Z,101702.78
2018-12-10T17:31:32.671Z,101700.14
2018-12-10T17:33:58.828Z,101708.55
2018-12-10T17:36:24.757Z,101709.87
2018-12-10T17:38:50.733Z,101706.74
2018-12-10T17:41:16.944Z,101716.81
2018-12-10T17:43:42.922Z,101718.13
2018-12-10T17:46:08.931Z,101718.63
2018-12-10T17:48:35.088Z,101722.09
2018-12-10T17:51:01.134Z,101730.88
2018-12-10T17:53:27.293Z,101728.70
2018-12-10T17:55:53.553Z,101729.07
2018-12-10T17:58:19.554Z,101731.82
2018-12-10T18:00:45.525Z,101728.45
2018-12-10T18:03:11.521Z,101723.91
2018-12-10T18:05:37.478Z,101723.18
2018-12-10T18:08:03.579Z,101722.95
2018-12-10T18:10:29.555Z,101727.38
2018-12-10T18:12:55.538Z,101729.33
2018-12-10T18:15:21.519Z,101738.80
2018-12-10T18:17:47.490Z,101738.31
2018-12-10T18:20:13.478Z,101741.89
2018-12-10T18:22:39.462Z,101741.55
2018-12-10T18:25:05.473Z,101738.80
2018-12-10T18:27:31.418Z,101741.55
2018-12-10T18:29:57.378Z,101745.25
2018-12-10T18:32:23.349Z,101737.82
2018-12-10T18:34:49.336Z,101740.46
2018-12-10T18:37:15.304Z,101739.87
2018-12-10T18:39:41.263Z,101742.02
2018-12-10T18:42:07.226Z,101744.42
2018-12-10T18:44:33.224Z,101748.38
2018-12-10T18:46:59.278Z,101745.25
2018-12-10T18:49:25.259Z,101740.46
2018-12-10T18:51:51.342Z,101741.06
2018-12-10T18:54:17.416Z,101741.55
2018-12-10T18:56:43.438Z,101739.63
2018-12-10T18:59:09.420Z,101740.95
2018-12-10T19:01:35.392Z,101736.85
2018-12-10T19:04:01.441Z,101737.82
2018-12-10T19:06:27.731Z,101736.39
2018-12-10T19:08:53.696Z,101731.11
2018-12-10T19:11:19.766Z,101728.47
2018-12-10T19:13:49.923Z,101730.14
2018-12-10T19:16:13.813Z,101730.14
2018-12-10T19:18:40.137Z,101735.66
2018-12-10T19:21:06.286Z,101731.58
2018-12-10T19:23:32.341Z,101734.34
2018-12-10T19:25:58.448Z,101731.58
2018-12-10T19:28:25.131Z,101730.12
2018-12-10T19:30:51.306Z,101731.92
2018-12-10T19:33:17.450Z,101734.56
2018-12-10T19:35:43.857Z,101730.98
2018-12-10T19:38:09.883Z,101734.94
2018-12-10T19:40:36.667Z,101743.09
2018-12-10T19:43:03.029Z,101740.69
2018-12-10T19:45:29.270Z,101745.34
2018-12-10T19:47:55.641Z,101741.53
2018-12-10T19:50:21.743Z,101745.00
2018-12-10T19:52:47.763Z,101745.72
2018-12-10T19:55:13.743Z,101746.55
2018-12-10T19:57:39.769Z,101740.69
2018-12-10T20:00:05.746Z,101749.45
2018-12-10T20:02:31.889Z,101747.41
2018-12-10T20:04:57.854Z,101751.62
2018-12-10T20:07:23.805Z,101737.58
2018-12-10T20:09:49.866Z,101749.47
2018-12-10T20:12:17.069Z,101749.58
2018-12-10T20:14:43.123Z,101749.92
2018-12-10T20:17:09.287Z,101754.38
2018-12-10T20:19:35.389Z,101750.41
2018-12-10T20:22:01.420Z,101754.26
2018-12-10T20:24:27.438Z,101757.50
2018-12-10T20:26:53.423Z,101758.81
2018-12-10T20:29:19.440Z,101764.44
2018-12-10T20:31:45.836Z,101756.90
2018-12-10T20:34:11.927Z,101759.05
2018-12-10T20:36:38.018Z,101755.81
2018-12-10T20:39:04.210Z,101758.80
2018-12-10T20:41:30.319Z,101754.12
2018-12-10T20:43:56.447Z,101755.91
2018-12-10T20:46:22.419Z,101753.27
2018-12-10T20:48:48.391Z,101764.08
2018-12-10T20:51:14.363Z,101763.59
2018-12-10T20:53:40.321Z,101757.97
2018-12-10T20:56:06.341Z,101767.20
2018-12-10T20:58:32.565Z,101773.09
2018-12-10T21:00:58.521Z,101772.60
2018-12-10T21:03:24.484Z,101772.36
2018-12-10T21:05:50.497Z,101771.05
2018-12-10T21:08:16.461Z,101766.14
2018-12-10T21:10:42.462Z,101772.02
2018-12-10T21:13:08.449Z,101775.87
2018-12-10T21:15:34.626Z,101775.49
2018-12-10T21:18:00.686Z,101766.25
2018-12-10T21:20:26.690Z,101766.73
2018-12-10T21:22:52.736Z,101763.13
2018-12-10T21:25:18.986Z,101764.82
2018-12-10T21:27:44.982Z,101761.58
2018-12-10T21:30:10.940Z,101770.83
2018-12-10T21:32:37.206Z,101766.23
2018-12-10T21:35:03.152Z,101769.36
2018-12-10T21:37:29.213Z,101765.30
2018-12-10T21:39:55.247Z,101772.73
2018-12-10T21:42:21.302Z,101772.48
2018-12-10T21:44:47.318Z,101772.48
2018-12-10T21:47:13.295Z,101773.32
2018-12-10T21:49:39.282Z,101771.66
2018-12-10T21:52:05.297Z,101769.61
2018-12-10T21:54:31.250Z,101771.42
2018-12-10T21:56:57.232Z,101775.25
2018-12-10T21:59:23.277Z,101775.25
2018-12-10T22:01:49.422Z,101778.01
2018-12-10T22:04:15.408Z,101774.53
2018-12-10T22:06:41.369Z,101774.53
2018-12-10T22:09:07.334Z,101777.17
2018-12-10T22:11:33.297Z,101770.48
2018-12-10T22:13:59.261Z,101779.72
2018-12-10T22:16:25.241Z,101768.29
2018-12-10T22:18:51.245Z,101759.19
2018-12-10T22:21:17.199Z,101763.64
2018-12-10T22:23:43.180Z,101765.07
2018-12-10T22:26:09.142Z,101767.47
2018-12-10T22:28:35.093Z,101760.98
2018-12-10T22:31:01.163Z,101759.17
2018-12-10T22:33:27.192Z,101756.67
2018-12-10T22:35:53.144Z,101769.04
2018-12-10T22:38:19.097Z,101761.23
2018-12-10T22:40:45.289Z,101768.55
2018-12-10T22:43:11.242Z,101759.91
2018-12-10T22:45:37.199Z,101762.90
2018-12-10T22:48:03.259Z,101765.68
2018-12-10T22:50:29.275Z,101760.89
2018-12-10T22:52:55.312Z,101772.87
2018-12-10T22:55:21.257Z,101772.98
2018-12-10T22:57:47.253Z,101771.80
2018-12-10T23:00:13.225Z,101763.02
2018-12-10T23:02:39.203Z,101764.72
2018-12-10T23:05:05.186Z,101767.70
2018-12-10T23:07:31.217Z,101765.06
2018-12-10T23:09:57.197Z,101766.38
2018-12-10T23:12:23.150Z,101768.78
2018-12-10T23:14:49.149Z,101766.63
2018-12-10T23:17:15.120Z,101762.78
2018-12-10T23:19:41.178Z,101768.20
2018-12-10T23:22:07.121Z,101765.32
2018-12-10T23:24:33.169Z,101771.43
2018-12-10T23:26:59.193Z,101769.77
2018-12-10T23:29:25.309Z,101770.84
2018-12-10T23:31:51.274Z,101773.94
2018-12-10T23:34:17.296Z,101777.06
2018-12-10T23:36:43.277Z,101779.70
2018-12-10T23:39:09.242Z,101783.17
2018-12-10T23:41:35.213Z,101780.08
2018-12-10T23:44:01.246Z,101774.80
2018-12-10T23:46:27.523Z,101778.87
2018-12-10T23:48:53.494Z,101776.23
2018-12-10T23:51:19.457Z,101777.44
2018-12-10T23:53:45.514Z,101776.58
2018-12-10T23:56:11.501Z,101777.79
2018-12-10T23:58:37.487Z,101772.52
